createdAt,value
2022-08-19T00:01:38.077Z,96936.25
2022-08-19T00:04:09.548Z,96937.00
2022-08-19T00:06:38.843Z,96937.41
2022-08-19T00:09:08.618Z,96932.31
2022-08-19T00:11:38.549Z,96933.41
2022-08-19T00:14:10.830Z,96940.97
2022-08-19T00:16:39.722Z,96950.34
2022-08-19T00:19:08.871Z,96940.91
2022-08-19T00:21:39.350Z,96933.47
2022-08-19T00:24:08.146Z,96912.03
2022-08-19T00:26:37.258Z,96910.63
2022-08-19T00:29:08.201Z,96912.91
2022-08-19T00:31:37.100Z,96921.50
2022-08-19T00:34:05.488Z,96925.81
2022-08-19T00:36:34.102Z,96918.13
2022-08-19T00:39:03.160Z,96915.03
2022-08-19T00:41:31.444Z,96912.75
2022-08-19T00:44:01.960Z,96912.31
2022-08-19T00:46:32.638Z,96916.16
2022-08-19T00:49:02.222Z,96912.09
2022-08-19T00:51:33.517Z,96914.81
2022-08-19T00:54:03.355Z,96906.09
2022-08-19T00:56:32.804Z,96903.75
2022-08-19T00:59:03.097Z,96903.09
2022-08-19T01:01:32.538Z,96907.38
2022-08-19T01:04:01.084Z,96913.28
2022-08-19T01:06:29.228Z,96912.78
2022-08-19T01:08:57.954Z,96908.03
2022-08-19T01:11:25.978Z,96909.25
2022-08-19T01:13:55.265Z,96900.97
2022-08-19T01:16:27.448Z,96906.84
2022-08-19T01:18:57.486Z,96919.28
2022-08-19T01:21:33.519Z,96917.41
2022-08-19T01:24:03.391Z,96912.59
2022-08-19T01:26:31.506Z,96905.09
2022-08-19T01:29:02.164Z,96900.31
2022-08-19T01:31:33.495Z,96895.88
2022-08-19T01:34:03.041Z,96894.81
2022-08-19T01:36:33.572Z,96905.56
2022-08-19T01:39:05.305Z,96901.09
2022-08-19T01:41:33.292Z,96905.47
2022-08-19T01:44:03.312Z,96914.59
2022-08-19T01:46:46.552Z,96919.34
2022-08-19T01:49:14.563Z,96932.06
2022-08-19T01:51:42.614Z,96931.78
2022-08-19T01:54:14.334Z,96940.88
2022-08-19T01:56:52.260Z,96928.50
2022-08-19T01:59:24.072Z,96935.28
2022-08-19T02:01:52.112Z,96934.16
2022-08-19T02:04:20.561Z,96937.16
2022-08-19T02:06:49.201Z,96939.91
2022-08-19T02:09:19.033Z,96946.59
2022-08-19T02:11:47.001Z,96957.53
2022-08-19T02:14:14.965Z,96965.03
2022-08-19T02:16:43.128Z,96975.78
2022-08-19T02:19:11.786Z,96985.09
2022-08-19T02:21:39.806Z,96989.34
2022-08-19T02:24:08.286Z,96988.38
2022-08-19T02:26:37.652Z,96991.22
2022-08-19T02:29:06.510Z,96985.72
2022-08-19T02:31:34.530Z,96985.88
2022-08-19T02:34:03.276Z,96986.16
2022-08-19T02:36:32.119Z,96992.03
2022-08-19T02:38:59.552Z,96994.97
2022-08-19T02:41:29.615Z,97003.63
2022-08-19T02:44:29.688Z,97004.03
2022-08-19T02:46:51.715Z,97017.50
2022-08-19T02:49:22.058Z,97013.13
2022-08-19T02:51:50.469Z,97015.16
2022-08-19T02:54:18.906Z,97018.00
2022-08-19T02:56:47.460Z,97023.53
2022-08-19T02:59:17.236Z,97021.13
2022-08-19T03:01:45.218Z,97025.13
2022-08-19T03:04:16.914Z,97038.34
2022-08-19T03:06:47.610Z,97047.09
2022-08-19T03:09:16.815Z,97052.88
2022-08-19T03:11:45.001Z,97052.63
2022-08-19T03:14:14.246Z,97042.53
2022-08-19T03:16:45.749Z,97037.44
2022-08-19T03:19:15.440Z,97039.97
2022-08-19T03:21:45.979Z,97042.25
2022-08-19T03:24:15.589Z,97032.16
2022-08-19T03:26:45.923Z,97038.16
2022-08-19T03:29:14.551Z,97033.06
2022-08-19T03:32:01.849Z,97035.91
2022-08-19T03:34:31.799Z,97027.22
2022-08-19T03:37:05.636Z,97009.53
2022-08-19T03:39:34.187Z,96999.72
2022-08-19T03:42:29.207Z,96996.63
2022-08-19T03:44:51.669Z,96996.03
2022-08-19T03:47:21.264Z,96985.91
2022-08-19T03:49:49.257Z,96974.25
2022-08-19T03:52:17.702Z,96961.91
2022-08-19T03:54:46.013Z,96947.72
2022-08-19T03:57:14.430Z,96945.28
2022-08-19T03:59:42.554Z,96945.97
2022-08-19T04:02:13.356Z,96932.06
2022-08-19T04:04:45.744Z,96932.13
2022-08-19T04:07:17.456Z,96926.56
2022-08-19T04:09:45.976Z,96932.25
2022-08-19T04:12:14.688Z,96933.78
2022-08-19T04:14:43.415Z,96939.81
2022-08-19T04:17:12.839Z,96932.47
2022-08-19T04:19:43.921Z,96935.59
2022-08-19T04:22:13.271Z,96930.56
2022-08-19T04:24:41.296Z,96936.03
2022-08-19T04:27:09.419Z,96933.81
2022-08-19T04:29:40.782Z,96935.06
2022-08-19T04:32:09.867Z,96939.47
2022-08-19T04:35:02.241Z,96942.66
2022-08-19T04:37:35.157Z,96962.03
2022-08-19T04:40:22.667Z,96966.06
2022-08-19T04:42:51.155Z,96981.19
2022-08-19T04:45:19.179Z,96992.28
2022-08-19T04:47:58.952Z,96992.03
2022-08-19T04:50:43.123Z,96994.88
2022-08-19T04:53:13.211Z,97006.22
2022-08-19T04:55:42.860Z,97010.97
2022-08-19T04:58:10.851Z,97011.50
2022-08-19T05:00:41.149Z,97033.53
2022-08-19T05:03:09.107Z,97039.09
2022-08-19T05:05:44.563Z,97063.44
2022-08-19T05:08:31.081Z,97063.50
2022-08-19T05:10:59.731Z,97069.78
2022-08-19T05:13:28.936Z,97068.88
2022-08-19T05:15:59.110Z,97069.63
2022-08-19T05:18:45.662Z,97072.53
2022-08-19T05:21:35.417Z,97070.94
2022-08-19T05:24:09.119Z,97070.97
2022-08-19T05:26:37.391Z,97076.91
2022-08-19T05:29:06.303Z,97082.50
2022-08-19T05:31:35.467Z,97082.16
2022-08-19T05:34:04.984Z,97080.06
2022-08-19T05:36:47.817Z,97075.97
2022-08-19T05:39:21.000Z,97080.34
2022-08-19T05:41:53.595Z,97083.91
2022-08-19T05:44:23.241Z,97085.94
2022-08-19T05:46:53.807Z,97092.94
2022-08-19T05:49:23.814Z,97099.72
2022-08-19T05:51:52.233Z,97092.28
2022-08-19T05:54:22.625Z,97096.44
2022-08-19T05:56:51.632Z,97094.31
2022-08-19T05:59:20.740Z,97104.19
2022-08-19T06:01:51.453Z,97098.25
2022-08-19T06:04:21.259Z,97097.34
2022-08-19T06:06:53.643Z,97094.69
2022-08-19T06:09:24.207Z,97098.38
2022-08-19T06:11:56.026Z,97110.53
2022-08-19T06:14:28.010Z,97100.91
2022-08-19T06:16:56.480Z,97107.34
2022-08-19T06:19:26.780Z,97096.31
2022-08-19T06:21:55.368Z,97108.59
2022-08-19T06:24:27.464Z,97102.34
2022-08-19T06:27:00.748Z,97104.50
2022-08-19T06:29:31.996Z,97097.78
2022-08-19T06:32:01.884Z,97099.88
2022-08-19T06:34:32.443Z,97089.28
2022-08-19T06:37:02.982Z,97103.00
2022-08-19T06:39:35.036Z,97098.47
2022-08-19T06:42:07.230Z,97096.25
2022-08-19T06:44:43.375Z,97098.13
2022-08-19T06:47:23.119Z,97098.25
2022-08-19T06:49:55.360Z,97102.38
2022-08-19T06:52:29.107Z,97108.66
2022-08-19T06:54:59.638Z,97114.09
2022-08-19T06:57:28.533Z,97114.09
2022-08-19T06:59:57.905Z,97115.00
2022-08-19T07:02:27.362Z,97118.38
2022-08-19T07:04:56.807Z,97122.72
2022-08-19T07:07:25.906Z,97114.59
2022-08-19T07:09:58.521Z,97111.25
2022-08-19T07:12:32.354Z,97107.19
2022-08-19T07:15:00.594Z,97108.63
2022-08-19T07:17:30.250Z,97113.44
2022-08-19T07:20:06.746Z,97118.16
2022-08-19T07:22:35.033Z,97122.13
2022-08-19T07:25:04.879Z,97127.25
2022-08-19T07:27:34.995Z,97129.56
2022-08-19T07:30:03.926Z,97133.59
2022-08-19T07:32:32.552Z,97136.34
2022-08-19T07:35:01.654Z,97128.44
2022-08-19T07:37:33.064Z,97126.41
2022-08-19T07:40:02.290Z,97130.81
2022-08-19T07:42:31.146Z,97141.84
2022-08-19T07:45:01.223Z,97149.00
2022-08-19T07:47:49.106Z,97142.28
2022-08-19T07:50:20.052Z,97151.78
2022-08-19T07:52:48.771Z,97145.06
2022-08-19T07:55:42.110Z,97138.31
2022-08-19T07:58:08.491Z,97143.84
2022-08-19T08:00:38.581Z,97140.28
2022-08-19T08:03:06.654Z,97145.06
2022-08-19T08:05:52.513Z,97131.63
2022-08-19T08:08:44.160Z,97126.03
2022-08-19T08:11:20.101Z,97108.28
2022-08-19T08:14:01.221Z,97102.91
2022-08-19T08:16:39.529Z,97108.09
2022-08-19T08:19:22.930Z,97104.44
2022-08-19T08:21:55.202Z,97111.78
2022-08-19T08:24:22.583Z,97107.28
2022-08-19T08:26:58.005Z,97106.56
2022-08-19T08:29:26.758Z,97099.31
2022-08-19T08:32:14.231Z,97095.72
2022-08-19T08:34:43.341Z,97094.78
2022-08-19T08:37:11.661Z,97096.38
2022-08-19T08:39:39.707Z,97105.28
2022-08-19T08:42:17.960Z,97098.22
2022-08-19T08:47:27.553Z,97112.25
2022-08-19T08:50:01.412Z,97109.38
2022-08-19T08:52:36.768Z,97111.69
2022-08-19T08:55:14.831Z,97113.41
2022-08-19T08:57:52.135Z,97108.19
2022-08-19T09:00:23.377Z,97119.63
2022-08-19T09:02:53.183Z,97112.56
2022-08-19T09:05:26.007Z,97116.78
2022-08-19T09:08:03.592Z,97115.91
2022-08-19T09:10:43.977Z,97121.63
2022-08-19T09:13:23.569Z,97124.00
2022-08-19T09:15:57.137Z,97127.25
2022-08-19T09:18:26.917Z,97123.31
2022-08-19T09:20:58.296Z,97118.56
2022-08-19T09:23:26.768Z,97115.03
2022-08-19T09:25:55.291Z,97120.53
2022-08-19T09:28:27.289Z,97118.19
2022-08-19T09:30:55.501Z,97119.31
2022-08-19T09:33:23.844Z,97130.81
2022-08-19T09:36:04.338Z,97130.84
2022-08-19T09:38:37.465Z,97117.69
2022-08-19T09:41:14.597Z,97121.34
2022-08-19T09:43:47.934Z,97129.59
2022-08-19T09:46:18.404Z,97131.59
2022-08-19T09:48:49.636Z,97124.00
2022-08-19T09:51:21.662Z,97119.28
2022-08-19T09:53:54.976Z,97130.84
2022-08-19T09:56:24.701Z,97130.81
2022-08-19T09:58:52.950Z,97130.44
2022-08-19T10:01:24.309Z,97133.59
2022-08-19T10:03:55.630Z,97126.06
2022-08-19T10:06:43.251Z,97126.88
2022-08-19T10:09:15.846Z,97113.03
2022-08-19T10:11:54.472Z,97116.53
2022-08-19T10:14:23.708Z,97111.84
2022-08-19T10:16:52.822Z,97124.38
2022-08-19T10:19:25.798Z,97124.13
2022-08-19T10:22:00.505Z,97123.72
2022-08-19T10:24:29.420Z,97131.06
2022-08-19T10:26:59.956Z,97120.09
2022-08-19T10:29:33.001Z,97116.94
2022-08-19T10:32:02.683Z,97120.09
2022-08-19T10:34:33.001Z,97122.53
2022-08-19T10:37:02.471Z,97120.13
2022-08-19T10:39:32.664Z,97122.91
2022-08-19T10:42:11.612Z,97115.94
2022-08-19T10:44:40.786Z,97126.34
2022-08-19T10:47:17.513Z,97137.00
2022-08-19T10:50:12.291Z,97142.03
2022-08-19T10:52:49.789Z,97135.50
2022-08-19T10:55:38.214Z,97141.50
2022-08-19T10:58:06.915Z,97127.59
2022-08-19T11:00:38.982Z,97125.94
2022-08-19T11:03:06.936Z,97123.47
2022-08-19T11:05:40.075Z,97122.16
2022-08-19T11:08:23.416Z,97121.63
2022-08-19T11:10:54.858Z,97122.09
2022-08-19T11:13:23.018Z,97120.97
2022-08-19T11:16:01.712Z,97129.31
2022-08-19T11:18:31.931Z,97125.94
2022-08-19T11:21:08.078Z,97121.53
2022-08-19T11:23:37.382Z,97127.03
2022-08-19T11:26:05.426Z,97134.97
2022-08-19T11:28:33.698Z,97126.94
2022-08-19T11:31:02.738Z,97140.22
2022-08-19T11:33:30.688Z,97139.81
2022-08-19T11:36:01.298Z,97137.88
2022-08-19T11:38:30.207Z,97146.25
2022-08-19T11:41:01.759Z,97144.66
2022-08-19T11:43:35.487Z,97147.41
2022-08-19T11:46:08.148Z,97155.78
2022-08-19T11:48:36.849Z,97147.38
2022-08-19T11:51:08.639Z,97141.00
2022-08-19T11:53:37.466Z,97151.00
2022-08-19T11:56:09.447Z,97140.25
2022-08-19T11:58:38.135Z,97144.13
2022-08-19T12:01:09.144Z,97143.56
2022-08-19T12:03:37.706Z,97147.81
2022-08-19T12:06:07.703Z,97142.91
2022-08-19T12:08:35.826Z,97144.81
2022-08-19T12:11:04.258Z,97143.69
2022-08-19T12:13:33.624Z,97142.19
2022-08-19T12:16:02.155Z,97152.84
2022-08-19T12:18:30.129Z,97147.69
2022-08-19T12:20:58.457Z,97155.91
2022-08-19T12:23:26.428Z,97144.72
2022-08-19T12:25:56.006Z,97153.38
2022-08-19T12:30:55.214Z,97149.19
2022-08-19T12:33:26.058Z,97145.28
2022-08-19T12:35:54.451Z,97143.13
2022-08-19T12:38:25.188Z,97138.56
2022-08-19T12:40:58.323Z,97133.53
2022-08-19T12:43:28.339Z,97138.16
2022-08-19T12:45:57.688Z,97149.28
2022-08-19T12:48:33.780Z,97143.66
2022-08-19T12:51:09.536Z,97145.16
2022-08-19T12:53:39.308Z,97137.72
2022-08-19T12:56:12.148Z,97144.94
2022-08-19T12:58:42.695Z,97147.38
2022-08-19T13:01:22.051Z,97152.09
2022-08-19T13:03:53.193Z,97148.47
2022-08-19T13:06:21.790Z,97144.19
2022-08-19T13:08:49.808Z,97142.91
2022-08-19T13:11:20.307Z,97151.19
2022-08-19T13:13:51.286Z,97151.06
2022-08-19T13:16:23.324Z,97154.44
2022-08-19T13:18:52.885Z,97142.69
2022-08-19T13:21:23.185Z,97143.06
2022-08-19T13:23:52.294Z,97141.44
2022-08-19T13:26:21.339Z,97145.44
2022-08-19T13:29:06.899Z,97144.75
2022-08-19T13:31:58.847Z,97148.03
2022-08-19T13:34:33.387Z,97149.09
2022-08-19T13:37:03.954Z,97157.72
2022-08-19T13:39:33.740Z,97144.97
2022-08-19T13:42:01.799Z,97146.09
2022-08-19T13:44:31.151Z,97142.22
2022-08-19T13:47:07.019Z,97150.56
2022-08-19T13:49:36.011Z,97161.22
2022-08-19T13:52:04.945Z,97160.06
2022-08-19T13:54:32.918Z,97163.56
2022-08-19T13:57:01.419Z,97156.03
2022-08-19T13:59:29.361Z,97158.84
2022-08-19T14:02:00.461Z,97151.72
2022-08-19T14:04:29.839Z,97149.00
2022-08-19T14:06:57.787Z,97142.66
2022-08-19T14:09:25.940Z,97145.06
2022-08-19T14:11:53.962Z,97151.38
2022-08-19T14:14:22.427Z,97148.19
2022-08-19T14:16:50.978Z,97152.56
2022-08-19T14:19:18.914Z,97149.03
2022-08-19T14:21:48.375Z,97145.81
2022-08-19T14:24:16.476Z,97148.94
2022-08-19T14:26:44.666Z,97157.72
2022-08-19T14:29:13.558Z,97164.41
2022-08-19T14:31:44.024Z,97156.13
2022-08-19T14:34:13.676Z,97153.72
2022-08-19T14:36:42.900Z,97146.91
2022-08-19T14:39:12.578Z,97154.88
2022-08-19T14:41:43.298Z,97153.56
2022-08-19T14:44:13.451Z,97140.59
2022-08-19T14:46:48.563Z,97148.56
2022-08-19T14:49:17.829Z,97137.44
2022-08-19T14:51:48.210Z,97139.41
2022-08-19T14:54:17.639Z,97134.38
2022-08-19T14:56:46.269Z,97138.63
2022-08-19T14:59:14.353Z,97138.13
2022-08-19T15:01:42.832Z,97153.44
2022-08-19T15:04:10.863Z,97149.78
2022-08-19T15:06:39.599Z,97142.13
2022-08-19T15:09:07.928Z,97146.13
2022-08-19T15:11:38.447Z,97152.03
2022-08-19T15:14:07.941Z,97151.38
2022-08-19T15:16:35.903Z,97158.84
2022-08-19T15:19:03.885Z,97157.50
2022-08-19T15:21:32.501Z,97154.09
2022-08-19T15:24:01.729Z,97161.13
2022-08-19T15:26:33.413Z,97164.47
2022-08-19T15:29:04.028Z,97164.47
2022-08-19T15:31:35.540Z,97174.25
2022-08-19T15:34:06.842Z,97173.47
2022-08-19T15:36:35.716Z,97163.03
2022-08-19T15:39:05.415Z,97166.06
2022-08-19T15:41:33.872Z,97166.31
2022-08-19T15:44:09.009Z,97165.19
2022-08-19T15:46:39.717Z,97159.56
2022-08-19T15:49:08.750Z,97164.31
2022-08-19T15:51:37.928Z,97163.47
2022-08-19T15:54:08.730Z,97158.38
2022-08-19T15:56:58.277Z,97168.28
2022-08-19T15:59:46.914Z,97166.97
2022-08-19T16:02:34.005Z,97164.97
2022-08-19T16:05:19.586Z,97165.72
2022-08-19T16:07:49.009Z,97167.28
2022-08-19T16:10:27.234Z,97166.16
2022-08-19T16:12:57.978Z,97155.88
2022-08-19T16:15:28.528Z,97159.94
2022-08-19T16:17:57.953Z,97164.22
2022-08-19T16:20:27.869Z,97166.63
2022-08-19T16:22:56.585Z,97164.84
2022-08-19T16:25:29.358Z,97165.53
2022-08-19T16:28:07.680Z,97164.34
2022-08-19T16:30:39.320Z,97179.66
2022-08-19T16:33:08.782Z,97187.53
2022-08-19T16:35:37.292Z,97188.66
2022-08-19T16:38:07.313Z,97191.88
2022-08-19T16:40:35.526Z,97197.31
2022-08-19T16:43:04.156Z,97190.25
2022-08-19T16:45:32.258Z,97191.78
2022-08-19T16:48:02.033Z,97205.06
2022-08-19T16:50:48.213Z,97200.19
2022-08-19T16:53:17.808Z,97211.56
2022-08-19T16:55:47.502Z,97212.41
2022-08-19T16:58:15.853Z,97223.09
2022-08-19T17:00:44.002Z,97224.97
2022-08-19T17:03:15.205Z,97225.94
2022-08-19T17:05:44.087Z,97228.94
2022-08-19T17:08:12.480Z,97220.34
2022-08-19T17:10:45.710Z,97231.25
2022-08-19T17:13:26.819Z,97221.63
2022-08-19T17:15:55.531Z,97226.75
2022-08-19T17:18:26.199Z,97224.03
2022-08-19T17:21:00.970Z,97227.22
2022-08-19T17:23:42.474Z,97224.47
2022-08-19T17:26:17.974Z,97215.22
2022-08-19T17:28:49.847Z,97211.00
2022-08-19T17:31:19.088Z,97213.25
2022-08-19T17:33:49.064Z,97212.00
2022-08-19T17:36:18.234Z,97204.94
2022-08-19T17:38:47.145Z,97209.19
2022-08-19T17:41:15.146Z,97209.28
2022-08-19T17:43:44.170Z,97211.16
2022-08-19T17:46:18.082Z,97217.50
2022-08-19T17:48:52.086Z,97214.97
2022-08-19T17:51:23.739Z,97215.97
2022-08-19T17:53:53.647Z,97222.34
2022-08-19T17:56:23.943Z,97222.09
2022-08-19T17:58:59.911Z,97220.53
2022-08-19T18:01:43.977Z,97228.88
2022-08-19T18:04:20.140Z,97226.63
2022-08-19T18:06:53.547Z,97230.88
2022-08-19T18:09:24.583Z,97230.44
2022-08-19T18:11:54.520Z,97234.59
2022-08-19T18:14:32.149Z,97234.19
2022-08-19T18:17:05.828Z,97239.94
2022-08-19T18:19:41.460Z,97241.13
2022-08-19T18:22:12.517Z,97246.31
2022-08-19T18:24:41.680Z,97238.38
2022-08-19T18:27:10.328Z,97239.31
2022-08-19T18:29:40.172Z,97241.94
2022-08-19T18:32:13.056Z,97239.88
2022-08-19T18:34:44.138Z,97244.34
2022-08-19T18:37:12.626Z,97246.88
2022-08-19T18:39:58.204Z,97251.13
2022-08-19T18:42:44.135Z,97246.09
2022-08-19T18:45:29.884Z,97244.88
2022-08-19T18:48:25.740Z,97236.28
2022-08-19T18:50:58.258Z,97244.22
2022-08-19T18:53:27.411Z,97246.84
2022-08-19T18:55:55.772Z,97253.06
2022-08-19T18:58:26.648Z,97244.03
2022-08-19T19:00:57.446Z,97246.84
2022-08-19T19:03:26.225Z,97258.69
2022-08-19T19:05:54.803Z,97263.28
2022-08-19T19:08:27.259Z,97265.63
2022-08-19T19:10:56.415Z,97274.66
2022-08-19T19:13:24.833Z,97271.78
2022-08-19T19:15:54.462Z,97269.88
2022-08-19T19:18:22.445Z,97263.56
2022-08-19T19:20:50.842Z,97269.75
2022-08-19T19:23:18.787Z,97269.06
2022-08-19T19:25:50.696Z,97269.88
2022-08-19T19:28:24.366Z,97269.69
2022-08-19T19:30:53.879Z,97273.53
2022-08-19T19:33:21.840Z,97267.66
2022-08-19T19:35:50.388Z,97266.41
2022-08-19T19:38:18.363Z,97267.22
2022-08-19T19:40:47.679Z,97267.03
2022-08-19T19:43:17.220Z,97281.22
2022-08-19T19:45:45.387Z,97284.78
2022-08-19T19:48:16.286Z,97281.53
2022-08-19T19:50:46.243Z,97291.97
2022-08-19T19:53:24.600Z,97292.94
2022-08-19T19:55:59.225Z,97288.06
2022-08-19T19:58:28.931Z,97289.56
2022-08-19T20:00:58.937Z,97283.13
2022-08-19T20:03:27.870Z,97291.75
2022-08-19T20:05:59.834Z,97301.22
2022-08-19T20:08:45.988Z,97303.56
2022-08-19T20:11:31.781Z,97301.03
2022-08-19T20:14:02.411Z,97302.47
2022-08-19T20:16:31.643Z,97304.50
2022-08-19T20:19:01.096Z,97312.56
2022-08-19T20:21:33.137Z,97308.69
2022-08-19T20:24:09.145Z,97315.31
2022-08-19T20:26:40.990Z,97312.47
2022-08-19T20:29:38.471Z,97311.44
2022-08-19T20:31:59.451Z,97311.09
2022-08-19T20:34:28.803Z,97317.22
2022-08-19T20:36:56.914Z,97320.13
2022-08-19T20:39:24.878Z,97321.13
2022-08-19T20:41:56.781Z,97313.91
2022-08-19T20:44:25.907Z,97313.06
2022-08-19T20:46:57.511Z,97319.75
2022-08-19T20:49:27.480Z,97310.44
2022-08-19T20:51:56.630Z,97320.72
2022-08-19T20:54:24.909Z,97319.72
2022-08-19T20:56:54.703Z,97318.75
2022-08-19T20:59:24.176Z,97328.03
2022-08-19T21:01:53.074Z,97331.38
2022-08-19T21:04:23.076Z,97331.75
2022-08-19T21:06:51.959Z,97332.91
2022-08-19T21:09:20.283Z,97338.31
2022-08-19T21:11:49.070Z,97342.38
2022-08-19T21:14:19.059Z,97343.66
2022-08-19T21:16:47.091Z,97348.44
2022-08-19T21:19:15.065Z,97350.72
2022-08-19T21:21:43.019Z,97348.16
2022-08-19T21:24:11.435Z,97340.84
2022-08-19T21:26:39.439Z,97345.78
2022-08-19T21:29:07.614Z,97347.28
2022-08-19T21:31:37.373Z,97346.66
2022-08-19T21:34:05.439Z,97355.75
2022-08-19T21:36:33.806Z,97351.47
2022-08-19T21:39:01.704Z,97351.31
2022-08-19T21:41:29.670Z,97351.59
2022-08-19T21:43:58.348Z,97355.13
2022-08-19T21:46:26.365Z,97357.81
2022-08-19T21:48:56.201Z,97362.91
2022-08-19T21:51:24.207Z,97371.38
2022-08-19T21:53:52.979Z,97378.28
2022-08-19T21:56:21.599Z,97373.50
2022-08-19T21:58:49.795Z,97377.91
2022-08-19T22:01:18.846Z,97377.31
2022-08-19T22:03:46.858Z,97378.56
2022-08-19T22:06:16.390Z,97375.25
2022-08-19T22:08:45.271Z,97375.69
2022-08-19T22:11:13.216Z,97373.59
2022-08-19T22:13:41.654Z,97374.06
2022-08-19T22:16:10.095Z,97377.28
2022-08-19T22:18:38.111Z,97378.88
2022-08-19T22:21:11.666Z,97373.13
2022-08-19T22:23:41.783Z,97369.78
2022-08-19T22:26:10.309Z,97368.09
2022-08-19T22:28:39.516Z,97363.28
2022-08-19T22:31:08.194Z,97352.44
2022-08-19T22:33:36.959Z,97358.69
2022-08-19T22:36:07.959Z,97357.38
2022-08-19T22:38:37.708Z,97361.81
2022-08-19T22:41:08.134Z,97365.53
2022-08-19T22:43:37.577Z,97363.75
2022-08-19T22:46:17.249Z,97366.94
2022-08-19T22:48:47.328Z,97370.63
2022-08-19T22:51:32.682Z,97372.59
2022-08-19T22:54:01.472Z,97383.47
2022-08-19T22:56:32.021Z,97388.91
2022-08-19T22:59:00.538Z,97385.09
2022-08-19T23:01:30.570Z,97387.22
2022-08-19T23:04:03.660Z,97390.72
2022-08-19T23:06:33.794Z,97392.28
2022-08-19T23:09:04.844Z,97384.16
2022-08-19T23:11:39.866Z,97381.78
2022-08-19T23:14:11.671Z,97390.34
2022-08-19T23:16:41.600Z,97385.75
2022-08-19T23:19:10.273Z,97383.41
2022-08-19T23:21:38.946Z,97379.09
2022-08-19T23:24:07.463Z,97376.28
2022-08-19T23:26:37.189Z,97373.69
2022-08-19T23:29:24.784Z,97378.09
2022-08-19T23:31:52.728Z,97378.03
2022-08-19T23:34:21.166Z,97377.16
2022-08-19T23:36:51.285Z,97389.28
2022-08-19T23:39:19.426Z,97394.63
2022-08-19T23:41:49.392Z,97390.13
2022-08-19T23:44:17.460Z,97386.56
2022-08-19T23:46:54.749Z,97390.66
2022-08-19T23:49:25.738Z,97392.25
2022-08-19T23:51:55.087Z,97391.09
2022-08-19T23:54:34.411Z,97389.16
2022-08-19T23:57:14.444Z,97391.09
2022-08-19T23:59:45.846Z,97381.72
